createdAt,value
2022-08-10T00:01:53.081Z,100606.00
2022-08-10T00:04:23.057Z,100601.00
2022-08-10T00:06:53.435Z,100610.00
2022-08-10T00:09:22.615Z,100609.00
2022-08-10T00:11:52.473Z,100603.00
2022-08-10T00:14:20.769Z,100606.00
2022-08-10T00:16:50.174Z,100600.00
2022-08-10T00:19:19.463Z,100593.00
2022-08-10T00:22:07.758Z,100599.00
2022-08-10T00:24:40.216Z,100590.00
2022-08-10T00:28:02.005Z,100600.00
2022-08-10T00:30:04.065Z,100596.00
2022-08-10T00:32:33.521Z,100599.00
2022-08-10T00:35:03.083Z,100597.00
2022-08-10T00:37:32.620Z,100602.00
2022-08-10T00:40:02.167Z,100597.00
2022-08-10T00:42:33.328Z,100599.00
2022-08-10T00:45:03.761Z,100596.00
2022-08-10T00:47:36.963Z,100597.00
2022-08-10T00:50:08.901Z,100597.00
2022-08-10T00:52:41.603Z,100593.00
2022-08-10T00:55:11.081Z,100595.00
2022-08-10T00:57:43.334Z,100596.00
2022-08-10T01:00:13.926Z,100595.00
2022-08-10T01:02:46.402Z,100596.00
2022-08-10T01:05:20.837Z,100599.00
2022-08-10T01:08:16.622Z,100594.00
2022-08-10T01:11:03.153Z,100588.00
2022-08-10T01:13:42.604Z,100591.00
2022-08-10T01:16:22.900Z,100582.00
2022-08-10T01:19:00.810Z,100587.00
2022-08-10T01:22:19.163Z,100593.00
2022-08-10T01:26:12.582Z,100594.00
2022-08-10T01:28:50.065Z,100582.00
2022-08-10T01:31:24.791Z,100577.00
2022-08-10T01:34:02.602Z,100590.00
2022-08-10T01:36:36.403Z,100571.00
2022-08-10T01:39:08.262Z,100577.00
2022-08-10T01:41:46.782Z,100577.00
2022-08-10T01:44:20.482Z,100580.00
2022-08-10T01:46:56.760Z,100592.00
2022-08-10T01:49:26.803Z,100582.00
2022-08-10T01:52:01.579Z,100594.00
2022-08-10T01:54:31.887Z,100592.00
2022-08-10T01:57:02.515Z,100593.00
2022-08-10T01:59:37.631Z,100582.00
2022-08-10T02:02:12.780Z,100586.00
2022-08-10T02:04:46.806Z,100590.00
2022-08-10T02:07:19.201Z,100595.00
2022-08-10T02:09:52.084Z,100589.00
2022-08-10T02:12:32.214Z,100593.00
2022-08-10T02:15:05.016Z,100596.00
2022-08-10T02:17:58.612Z,100598.00
2022-08-10T02:20:34.646Z,100593.00
2022-08-10T02:23:08.444Z,100595.00
2022-08-10T02:25:41.366Z,100588.00
2022-08-10T02:28:30.494Z,100595.00
2022-08-10T02:31:10.394Z,100590.00
2022-08-10T02:33:57.348Z,100594.00
2022-08-10T02:36:33.811Z,100593.00
2022-08-10T02:39:05.714Z,100597.00
2022-08-10T02:45:01.046Z,100591.00
2022-08-10T02:45:19.190Z,100586.00
2022-08-10T02:47:50.977Z,100595.00
2022-08-10T02:50:28.730Z,100596.00
2022-08-10T02:53:05.409Z,100591.00
2022-08-10T02:55:48.893Z,100582.00
2022-08-10T02:58:29.144Z,100581.00
2022-08-10T03:01:00.372Z,100577.00
2022-08-10T03:03:36.499Z,100595.00
2022-08-10T03:06:15.002Z,100588.00
2022-08-10T03:08:46.106Z,100590.00
2022-08-10T03:12:35.660Z,100589.00
2022-08-10T03:14:12.922Z,100600.00
2022-08-10T03:16:42.805Z,100597.00
2022-08-10T03:20:35.453Z,100595.00
2022-08-10T03:22:03.755Z,100588.00
2022-08-10T03:24:33.700Z,100595.00
2022-08-10T03:27:02.719Z,100590.00
2022-08-10T03:30:28.459Z,100588.00
2022-08-10T03:32:25.532Z,100596.00
2022-08-10T03:34:54.088Z,100594.00
2022-08-10T03:37:23.365Z,100599.00
2022-08-10T03:39:52.689Z,100602.00
2022-08-10T03:42:23.475Z,100601.00
2022-08-10T03:44:53.983Z,100611.00
2022-08-10T03:47:25.421Z,100611.00
2022-08-10T03:49:56.998Z,100606.00
2022-08-10T03:52:28.046Z,100607.00
2022-08-10T03:54:56.339Z,100612.00
2022-08-10T03:57:26.195Z,100611.00
2022-08-10T03:59:54.301Z,100608.00
2022-08-10T04:02:45.905Z,100611.00
2022-08-10T04:05:10.772Z,100618.00
2022-08-10T04:07:40.519Z,100611.00
2022-08-10T04:10:13.115Z,100611.00
2022-08-10T04:12:41.429Z,100616.00
2022-08-10T04:15:10.611Z,100613.00
2022-08-10T04:18:00.162Z,100616.00
2022-08-10T04:20:34.370Z,100618.00
2022-08-10T04:23:09.964Z,100621.00
2022-08-10T04:25:40.901Z,100613.00
2022-08-10T04:28:10.915Z,100618.00
2022-08-10T04:30:41.774Z,100611.00
2022-08-10T04:33:12.087Z,100616.00
2022-08-10T04:35:40.997Z,100616.00
2022-08-10T04:38:12.807Z,100624.00
2022-08-10T04:40:41.449Z,100614.00
2022-08-10T04:43:13.505Z,100615.00
2022-08-10T04:45:47.837Z,100619.00
2022-08-10T04:48:41.634Z,100628.00
2022-08-10T04:51:17.215Z,100621.00
2022-08-10T04:54:03.846Z,100627.00
2022-08-10T04:56:37.757Z,100619.00
2022-08-10T04:59:08.405Z,100632.00
2022-08-10T05:02:30.473Z,100628.00
2022-08-10T05:04:35.842Z,100631.00
2022-08-10T05:07:09.396Z,100627.00
2022-08-10T05:10:00.359Z,100625.00
2022-08-10T05:12:28.205Z,100633.00
2022-08-10T05:14:56.325Z,100633.00
2022-08-10T05:17:24.874Z,100629.00
2022-08-10T05:20:01.577Z,100634.00
2022-08-10T05:22:33.861Z,100635.00
2022-08-10T05:25:03.125Z,100633.00
2022-08-10T05:27:31.021Z,100637.00
2022-08-10T05:30:01.367Z,100637.00
2022-08-10T05:32:31.421Z,100628.00
2022-08-10T05:34:59.700Z,100633.00
2022-08-10T05:38:09.765Z,100635.00
2022-08-10T05:40:20.025Z,100639.00
2022-08-10T05:42:47.945Z,100627.00
2022-08-10T05:45:22.604Z,100630.00
2022-08-10T05:48:54.290Z,100622.00
2022-08-10T05:50:38.922Z,100628.00
2022-08-10T05:54:02.530Z,100630.00
2022-08-10T05:55:56.552Z,100633.00
2022-08-10T05:58:24.732Z,100634.00
2022-08-10T06:00:58.053Z,100634.00
2022-08-10T06:03:33.267Z,100632.00
2022-08-10T06:06:05.132Z,100630.00
2022-08-10T06:08:36.378Z,100636.00
2022-08-10T06:12:28.114Z,100634.00
2022-08-10T06:14:18.509Z,100632.00
2022-08-10T06:16:48.392Z,100635.00
2022-08-10T06:19:17.498Z,100636.00
2022-08-10T06:21:53.740Z,100632.00
2022-08-10T06:24:31.119Z,100636.00
2022-08-10T06:27:01.201Z,100643.00
2022-08-10T06:29:34.692Z,100641.00
2022-08-10T06:32:05.835Z,100633.00
2022-08-10T06:34:44.200Z,100649.00
2022-08-10T06:37:15.215Z,100634.00
2022-08-10T06:39:45.017Z,100646.00
2022-08-10T06:42:18.644Z,100647.00
2022-08-10T06:44:59.298Z,100652.00
2022-08-10T06:47:35.874Z,100652.00
2022-08-10T06:50:13.553Z,100650.00
2022-08-10T06:52:43.485Z,100655.00
2022-08-10T06:55:16.886Z,100654.00
2022-08-10T06:57:59.683Z,100646.00
2022-08-10T07:00:34.219Z,100646.00
2022-08-10T07:03:15.276Z,100649.00
2022-08-10T07:05:51.360Z,100637.00
2022-08-10T07:08:23.878Z,100634.00
2022-08-10T07:10:54.221Z,100639.00
2022-08-10T07:14:17.434Z,100637.00
2022-08-10T07:16:14.587Z,100642.00
2022-08-10T07:18:45.348Z,100643.00
2022-08-10T07:21:15.795Z,100645.00
2022-08-10T07:23:58.843Z,100641.00
2022-08-10T07:26:31.551Z,100634.00
2022-08-10T07:29:03.092Z,100645.00
2022-08-10T07:31:56.041Z,100652.00
2022-08-10T07:34:29.699Z,100636.00
2022-08-10T07:37:02.972Z,100644.00
2022-08-10T07:40:03.051Z,100643.00
2022-08-10T07:42:28.200Z,100650.00
2022-08-10T07:45:02.791Z,100645.00
2022-08-10T07:47:53.956Z,100650.00
2022-08-10T07:50:26.535Z,100655.00
2022-08-10T07:52:59.457Z,100643.00
2022-08-10T07:56:01.579Z,100637.00
2022-08-10T07:58:19.484Z,100631.00
2022-08-10T08:00:52.626Z,100642.00
2022-08-10T08:03:25.726Z,100630.00
2022-08-10T08:06:02.821Z,100640.00
2022-08-10T08:08:36.221Z,100638.00
2022-08-10T08:11:06.060Z,100645.00
2022-08-10T08:13:38.194Z,100633.00
2022-08-10T08:16:20.731Z,100642.00
2022-08-10T08:19:25.563Z,100645.00
2022-08-10T08:24:07.954Z,100648.00
2022-08-10T08:24:36.473Z,100645.00
2022-08-10T08:27:07.656Z,100650.00
2022-08-10T08:29:40.026Z,100649.00
2022-08-10T08:32:11.519Z,100654.00
2022-08-10T08:34:44.269Z,100654.00
2022-08-10T08:38:29.605Z,100655.00
2022-08-10T08:40:09.731Z,100651.00
2022-08-10T08:43:15.089Z,100652.00
2022-08-10T08:46:19.261Z,100654.00
2022-08-10T08:50:04.514Z,100640.00
2022-08-10T08:52:35.231Z,100639.00
2022-08-10T08:56:04.945Z,100634.00
2022-08-10T08:59:00.797Z,100629.00
2022-08-10T09:01:48.954Z,100634.00
2022-08-10T09:05:01.317Z,100632.00
2022-08-10T09:08:00.350Z,100629.00
2022-08-10T09:10:46.209Z,100634.00
2022-08-10T09:13:27.002Z,100633.00
2022-08-10T09:16:09.649Z,100630.00
2022-08-10T09:18:48.591Z,100635.00
2022-08-10T09:21:29.101Z,100638.00
2022-08-10T09:24:06.646Z,100635.00
2022-08-10T09:26:49.473Z,100634.00
2022-08-10T09:29:27.443Z,100627.00
2022-08-10T09:36:13.944Z,100628.00
2022-08-10T09:36:26.376Z,100625.00
2022-08-10T09:38:12.499Z,100626.00
2022-08-10T09:40:59.626Z,100626.00
2022-08-10T09:43:44.480Z,100621.00
2022-08-10T09:46:30.727Z,100622.00
2022-08-10T09:49:16.503Z,100615.00
2022-08-10T09:52:02.874Z,100608.00
2022-08-10T09:54:52.136Z,100614.00
2022-08-10T09:57:44.292Z,100612.00
2022-08-10T10:00:20.266Z,100605.00
2022-08-10T10:03:11.666Z,100608.00
2022-08-10T10:05:57.331Z,100608.00
2022-08-10T10:08:33.286Z,100610.00
2022-08-10T10:11:20.637Z,100604.00
2022-08-10T10:14:11.864Z,100600.00
2022-08-10T10:16:58.127Z,100595.00
2022-08-10T10:19:45.127Z,100597.00
2022-08-10T10:22:39.268Z,100592.00
2022-08-10T10:25:19.992Z,100589.00
2022-08-10T10:28:03.601Z,100582.00
2022-08-10T10:30:44.080Z,100574.00
2022-08-10T10:33:21.814Z,100573.00
2022-08-10T10:35:55.858Z,100572.00
2022-08-10T10:38:30.923Z,100567.00
2022-08-10T10:41:09.122Z,100574.00
2022-08-10T10:44:01.011Z,100557.00
2022-08-10T10:46:52.275Z,100561.00
2022-08-10T10:49:36.825Z,100564.00
2022-08-10T10:52:26.134Z,100566.00
2022-08-10T10:55:14.161Z,100557.00
2022-08-10T10:58:01.060Z,100543.00
2022-08-10T11:00:44.763Z,100551.00
2022-08-10T11:03:51.637Z,100552.00
2022-08-10T11:06:40.434Z,100551.00
2022-08-10T11:10:05.229Z,100554.00
2022-08-10T11:12:26.123Z,100548.00
2022-08-10T11:15:05.484Z,100546.00
2022-08-10T11:17:45.401Z,100541.00
2022-08-10T11:20:23.350Z,100543.00
2022-08-10T11:23:05.013Z,100538.00
2022-08-10T11:25:39.450Z,100542.00
2022-08-10T11:28:15.576Z,100536.00
2022-08-10T11:30:51.081Z,100534.00
2022-08-10T11:33:32.948Z,100545.00
2022-08-10T11:36:10.023Z,100537.00
2022-08-10T11:39:13.569Z,100539.00
2022-08-10T11:42:09.034Z,100522.00
2022-08-10T11:44:50.108Z,100535.00
2022-08-10T11:47:23.264Z,100520.00
2022-08-10T11:50:04.441Z,100518.00
2022-08-10T11:52:52.889Z,100518.00
2022-08-10T11:55:24.333Z,100513.00
2022-08-10T11:57:56.921Z,100519.00
2022-08-10T12:00:32.360Z,100523.00
2022-08-10T12:03:06.936Z,100522.00
2022-08-10T12:05:53.075Z,100521.00
2022-08-10T12:10:06.684Z,100527.00
2022-08-10T12:11:24.647Z,100526.00
2022-08-10T12:16:53.475Z,100518.00
2022-08-10T12:19:28.991Z,100519.00
2022-08-10T12:22:06.491Z,100528.00
2022-08-10T12:24:41.578Z,100514.00
2022-08-10T12:27:17.302Z,100513.00
2022-08-10T12:29:54.460Z,100513.00
2022-08-10T12:32:36.072Z,100508.00
2022-08-10T12:35:22.063Z,100507.00
2022-08-10T12:38:08.474Z,100500.00
2022-08-10T12:40:44.355Z,100498.00
2022-08-10T12:44:05.614Z,100499.00
2022-08-10T12:46:16.636Z,100490.00
2022-08-10T12:48:57.910Z,100487.00
2022-08-10T12:51:32.468Z,100483.00
2022-08-10T12:54:11.444Z,100481.00
2022-08-10T12:56:46.462Z,100476.00
2022-08-10T12:59:16.693Z,100471.00
2022-08-10T13:02:07.927Z,100476.00
2022-08-10T13:04:42.743Z,100476.00
2022-08-10T13:08:24.123Z,100473.00
2022-08-10T13:10:06.751Z,100483.00
2022-08-10T13:12:40.548Z,100472.00
2022-08-10T13:15:45.621Z,100461.00
2022-08-10T13:18:18.954Z,100459.00
2022-08-10T13:20:53.076Z,100462.00
2022-08-10T13:23:26.860Z,100457.00
2022-08-10T13:26:00.291Z,100448.00
2022-08-10T13:28:45.598Z,100451.00
2022-08-10T13:31:21.292Z,100448.00
2022-08-10T13:34:42.133Z,100446.00
2022-08-10T13:37:11.117Z,100438.00
2022-08-10T13:39:58.471Z,100432.00
2022-08-10T13:42:34.832Z,100441.00
2022-08-10T13:45:10.788Z,100436.00
2022-08-10T13:47:48.839Z,100441.00
2022-08-10T13:50:33.579Z,100434.00
2022-08-10T13:53:11.654Z,100433.00
2022-08-10T13:55:55.499Z,100434.00
2022-08-10T13:58:33.374Z,100430.00
2022-08-10T14:01:11.020Z,100428.00
2022-08-10T14:03:43.823Z,100425.00
2022-08-10T14:06:15.271Z,100428.00
2022-08-10T14:08:51.214Z,100428.00
2022-08-10T14:11:22.821Z,100414.00
2022-08-10T14:13:58.294Z,100417.00
2022-08-10T14:16:27.853Z,100419.00
2022-08-10T14:19:00.504Z,100420.00
2022-08-10T14:21:29.504Z,100412.00
2022-08-10T14:23:58.260Z,100413.00
2022-08-10T14:26:30.770Z,100408.00
2022-08-10T14:29:08.859Z,100407.00
2022-08-10T14:31:40.813Z,100401.00
2022-08-10T14:36:05.065Z,100405.00
2022-08-10T14:37:34.990Z,100410.00
2022-08-10T14:40:11.802Z,100416.00
2022-08-10T14:42:51.266Z,100412.00
2022-08-10T14:45:28.772Z,100412.00
2022-08-10T14:48:06.378Z,100403.00
2022-08-10T14:50:36.738Z,100407.00
2022-08-10T14:53:10.186Z,100407.00
2022-08-10T14:55:58.381Z,100401.00
2022-08-10T14:58:33.819Z,100399.00
2022-08-10T15:01:06.875Z,100400.00
2022-08-10T15:03:58.641Z,100390.00
2022-08-10T15:06:32.783Z,100393.00
2022-08-10T15:09:12.606Z,100390.00
2022-08-10T15:12:13.388Z,100393.00
2022-08-10T15:14:42.456Z,100386.00
2022-08-10T15:17:26.683Z,100385.00
2022-08-10T15:20:03.097Z,100380.00
2022-08-10T15:22:38.010Z,100378.00
2022-08-10T15:25:18.181Z,100375.00
2022-08-10T15:27:54.677Z,100377.00
2022-08-10T15:30:31.414Z,100380.00
2022-08-10T15:34:03.613Z,100374.00
2022-08-10T15:36:35.930Z,100375.00
2022-08-10T15:39:17.225Z,100364.00
2022-08-10T15:42:05.342Z,100363.00
2022-08-10T15:44:39.412Z,100364.00
2022-08-10T15:47:15.459Z,100358.00
2022-08-10T15:49:55.621Z,100358.00
2022-08-10T15:52:39.375Z,100361.00
2022-08-10T15:55:41.466Z,100369.00
2022-08-10T15:58:37.576Z,100362.00
2022-08-10T16:02:13.690Z,100367.00
2022-08-10T16:04:09.032Z,100360.00
2022-08-10T16:06:44.425Z,100364.00
2022-08-10T16:10:22.014Z,100364.00
2022-08-10T16:12:15.725Z,100359.00
2022-08-10T16:14:50.073Z,100358.00
2022-08-10T16:17:21.681Z,100363.00
2022-08-10T16:19:53.533Z,100353.00
2022-08-10T16:22:36.341Z,100355.00
2022-08-10T16:25:15.057Z,100348.00
2022-08-10T16:27:45.649Z,100336.00
2022-08-10T16:30:15.365Z,100343.00
2022-08-10T16:32:44.940Z,100342.00
2022-08-10T16:35:19.959Z,100343.00
2022-08-10T16:37:57.216Z,100334.00
2022-08-10T16:40:30.028Z,100325.00
2022-08-10T16:43:02.259Z,100332.00
2022-08-10T16:45:35.761Z,100335.00
2022-08-10T16:48:06.870Z,100336.00
2022-08-10T16:50:41.676Z,100325.00
2022-08-10T16:53:15.251Z,100323.00
2022-08-10T16:55:50.946Z,100325.00
2022-08-10T16:58:25.253Z,100322.00
2022-08-10T17:00:54.570Z,100320.00
2022-08-10T17:04:08.145Z,100318.00
2022-08-10T17:06:24.405Z,100319.00
2022-08-10T17:08:57.629Z,100321.00
2022-08-10T17:11:41.375Z,100321.00
2022-08-10T17:14:10.698Z,100322.00
2022-08-10T17:16:43.983Z,100334.00
2022-08-10T17:19:16.472Z,100316.00
2022-08-10T17:21:52.304Z,100325.00
2022-08-10T17:24:29.241Z,100330.00
2022-08-10T17:27:01.492Z,100322.00
2022-08-10T17:30:03.070Z,100323.00
2022-08-10T17:32:44.295Z,100315.00
2022-08-10T17:35:23.241Z,100322.00
2022-08-10T17:37:57.996Z,100313.00
2022-08-10T17:40:30.725Z,100314.00
2022-08-10T17:43:02.503Z,100314.00
2022-08-10T17:45:46.238Z,100318.00
2022-08-10T17:48:21.123Z,100318.00
2022-08-10T17:50:53.021Z,100317.00
2022-08-10T17:53:28.528Z,100310.00
2022-08-10T17:56:01.385Z,100317.00
2022-08-10T17:58:31.630Z,100311.00
2022-08-10T18:01:40.340Z,100311.00
2022-08-10T18:03:56.549Z,100324.00
2022-08-10T18:06:25.577Z,100320.00
2022-08-10T18:08:59.282Z,100323.00
2022-08-10T18:11:33.176Z,100333.00
2022-08-10T18:14:07.358Z,100336.00
2022-08-10T18:16:38.937Z,100338.00
2022-08-10T18:19:12.595Z,100342.00
2022-08-10T18:21:43.189Z,100343.00
2022-08-10T18:24:16.762Z,100335.00
2022-08-10T18:26:50.409Z,100346.00
2022-08-10T18:29:22.928Z,100339.00
2022-08-10T18:31:59.532Z,100335.00
2022-08-10T18:34:30.690Z,100339.00
2022-08-10T18:36:59.980Z,100344.00
2022-08-10T18:39:33.058Z,100345.00
2022-08-10T18:42:11.608Z,100352.00
2022-08-10T18:44:48.194Z,100354.00
2022-08-10T18:47:22.650Z,100354.00
2022-08-10T18:50:01.203Z,100351.00
2022-08-10T18:52:34.797Z,100350.00
2022-08-10T18:55:23.150Z,100359.00
2022-08-10T18:58:46.407Z,100362.00
2022-08-10T19:01:38.974Z,100364.00
2022-08-10T19:04:44.435Z,100357.00
2022-08-10T19:07:54.537Z,100366.00
2022-08-10T19:10:40.875Z,100362.00
2022-08-10T19:13:22.675Z,100361.00
2022-08-10T19:16:04.496Z,100364.00
2022-08-10T19:18:38.281Z,100355.00
2022-08-10T19:21:18.088Z,100360.00
2022-08-10T19:24:01.617Z,100360.00
2022-08-10T19:26:45.958Z,100366.00
2022-08-10T19:30:08.605Z,100369.00
2022-08-10T19:32:53.239Z,100363.00
2022-08-10T19:36:03.803Z,100366.00
2022-08-10T19:38:37.102Z,100364.00
2022-08-10T19:41:31.991Z,100370.00
2022-08-10T19:44:16.097Z,100365.00
2022-08-10T19:46:52.849Z,100361.00
2022-08-10T19:49:39.800Z,100366.00
2022-08-10T19:52:22.503Z,100367.00
2022-08-10T19:55:03.360Z,100363.00
2022-08-10T19:57:39.700Z,100360.00
2022-08-10T20:00:18.777Z,100362.00
2022-08-10T20:03:01.134Z,100365.00
2022-08-10T20:05:36.391Z,100365.00
2022-08-10T20:08:19.114Z,100358.00
2022-08-10T20:10:59.363Z,100362.00
2022-08-10T20:13:38.354Z,100370.00
2022-08-10T20:16:15.059Z,100368.00
2022-08-10T20:18:49.614Z,100363.00
2022-08-10T20:21:26.292Z,100357.00
2022-08-10T20:24:00.542Z,100358.00
2022-08-10T20:26:36.155Z,100354.00
2022-08-10T20:29:16.554Z,100355.00
2022-08-10T20:32:08.084Z,100356.00
2022-08-10T20:34:44.308Z,100360.00
2022-08-10T20:37:43.478Z,100355.00
2022-08-10T20:40:21.794Z,100365.00
2022-08-10T20:43:13.431Z,100356.00
2022-08-10T20:46:07.431Z,100358.00
2022-08-10T20:48:44.514Z,100359.00
2022-08-10T20:51:19.353Z,100359.00
2022-08-10T20:53:56.331Z,100363.00
2022-08-10T20:56:43.284Z,100363.00
2022-08-10T21:00:04.185Z,100370.00
2022-08-10T21:02:54.644Z,100364.00
2022-08-10T21:05:34.430Z,100372.00
2022-08-10T21:08:17.635Z,100364.00
2022-08-10T21:11:05.945Z,100367.00
2022-08-10T21:13:54.468Z,100364.00
2022-08-10T21:16:52.492Z,100358.00
2022-08-10T21:20:08.025Z,100361.00
2022-08-10T21:22:42.137Z,100366.00
2022-08-10T21:25:20.167Z,100362.00
2022-08-10T21:28:29.080Z,100350.00
2022-08-10T21:31:24.136Z,100354.00
2022-08-10T21:34:18.963Z,100360.00
2022-08-10T21:36:58.692Z,100355.00
2022-08-10T21:39:50.833Z,100354.00
2022-08-10T21:42:53.608Z,100354.00
2022-08-10T21:46:00.308Z,100360.00
2022-08-10T21:49:07.991Z,100357.00
2022-08-10T21:52:05.241Z,100359.00
2022-08-10T21:55:02.302Z,100358.00
2022-08-10T21:58:06.665Z,100369.00
2022-08-10T22:01:03.620Z,100364.00
2022-08-10T22:03:58.055Z,100365.00
2022-08-10T22:06:52.242Z,100372.00
2022-08-10T22:09:44.861Z,100365.00
2022-08-10T22:12:35.869Z,100362.00
2022-08-10T22:16:03.214Z,100360.00
2022-08-10T22:19:01.423Z,100362.00
2022-08-10T22:22:02.065Z,100349.00
2022-08-10T22:25:17.038Z,100361.00
2022-08-10T22:28:07.066Z,100347.00
2022-08-10T22:31:29.627Z,100349.00
2022-08-10T22:34:33.616Z,100357.00
2022-08-10T22:37:42.064Z,100363.00
2022-08-10T22:40:35.818Z,100367.00
2022-08-10T22:43:35.317Z,100367.00
2022-08-10T22:46:30.623Z,100372.00
2022-08-10T22:49:02.394Z,100368.00
2022-08-10T22:51:44.384Z,100374.00
2022-08-10T22:54:41.262Z,100376.00
2022-08-10T22:57:32.899Z,100376.00
2022-08-10T23:00:14.920Z,100379.00
2022-08-10T23:02:52.791Z,100383.00
2022-08-10T23:05:33.474Z,100380.00
2022-08-10T23:08:10.755Z,100377.00
2022-08-10T23:10:50.747Z,100373.00
2022-08-10T23:13:36.241Z,100380.00
2022-08-10T23:16:29.782Z,100372.00
2022-08-10T23:19:11.299Z,100364.00
2022-08-10T23:22:04.213Z,100360.00
2022-08-10T23:24:40.435Z,100365.00
2022-08-10T23:27:13.227Z,100360.00
2022-08-10T23:30:09.311Z,100351.00
2022-08-10T23:32:43.556Z,100358.00
2022-08-10T23:36:29.875Z,100358.00
2022-08-10T23:38:07.859Z,100362.00
2022-08-10T23:40:37.427Z,100348.00
2022-08-10T23:43:07.562Z,100355.00
2022-08-10T23:45:53.792Z,100354.00
2022-08-10T23:48:30.481Z,100349.00
2022-08-10T23:51:03.719Z,100357.00
2022-08-10T23:53:49.484Z,100359.00
2022-08-10T23:56:22.566Z,100355.00
2022-08-10T23:58:55.626Z,100360.00
